Canada's Largest FIR

CZEG Edmonton

Screenshot by Jase Nantes

  Upcoming Events

Northern Lights Tuesdays  July 23, 2024 23:00z

  Online Controllers

No controllers online.

  Weather

CYYC - Calgary International Airport  
CYYC 211200Z VRB02KT 8SM SKC 17/13 A3027 RMK FU4 SLP236 DENSITY ALT 4300FT

CYEG - Edmonton International Airport  
CYEG 211213Z 20004KT 1 1/2SM BR FU SKC 13/13 A3022 RMK FU2 SLP233

CYXY - Whitehorse / Erik Nielsen International Airport  
CYXY 211200Z 00000KT 40SM BKN060TCU BKN100 BKN160 14/10 A3020 RMK TCU5AC1AC2 AC TR SH DIST SW-NW SLP239

CYZF - Yellowknife International Airport  
CYZF 211200Z 05008KT 15SM FEW100 BKN240 15/11 A3030 RMK AC2CI5 FU SLP269

CYMM - Fort McMurray Airport  
CYMM 211200Z AUTO 14004KT 1 1/4SM BR FEW033 15/14 A3019 RMK SLP230

CYQF - Red Deer Regional Airport  
CYQF 211241Z AUTO 20004KT 3SM BR SCT004 13/13 A3025 RMK SLP260

CZVL - Edmonton / Villeneuve Airport  
CZVL 211200Z AUTO 30002KT 0SM R26/0600V1000FT/ FG VV001 14/14 A3022 RMK SLP230

CYBW - Calgary / Springbank Airport  
CYBW 211200Z AUTO 32005KT 9SM CLR 13/13 A3030 RMK SLP246 DENSITY ALT 4300FT

CYOD - CFB Cold Lake  
CYOD 211200Z 31002KT 1 1/2SM BR SKC 13/13 A3024 RMK DENSITY ALT 1811FT SLP241

  View Our Airspace